createdAt,value
2023-03-30T00:01:51.464Z,99977.06
2023-03-30T00:04:18.089Z,99964.06
2023-03-30T00:10:04.145Z,99946.34
2023-03-30T00:12:54.696Z,99937.75
2023-03-30T00:18:18.975Z,99926.56
2023-03-30T00:20:55.050Z,99917.69
2023-03-30T00:23:28.664Z,99920.03
2023-03-30T00:25:59.220Z,99916.09
2023-03-30T00:32:14.713Z,99881.00
2023-03-30T00:34:41.231Z,99872.94
2023-03-30T00:37:14.604Z,99862.78
2023-03-30T00:42:43.703Z,99857.59
2023-03-30T00:49:04.222Z,99830.59
2023-03-30T00:51:23.196Z,99823.81
2023-03-30T00:56:52.568Z,99805.38
2023-03-30T01:02:34.077Z,99787.00
2023-03-30T01:05:03.318Z,99776.13
2023-03-30T01:07:31.982Z,99766.00
2023-03-30T01:10:00.260Z,99773.06
2023-03-30T01:12:27.288Z,99757.69
2023-03-30T01:14:56.115Z,99754.84
2023-03-30T01:17:32.687Z,99741.31
2023-03-30T01:20:29.681Z,99733.78
2023-03-30T01:23:22.058Z,99726.53
2023-03-30T01:26:12.251Z,99713.78
2023-03-30T01:28:47.811Z,99705.53
2023-03-30T01:31:36.747Z,99699.06
2023-03-30T01:37:35.939Z,99680.09
2023-03-30T01:44:03.401Z,99660.06
2023-03-30T01:47:12.153Z,99652.78
2023-03-30T01:49:44.216Z,99634.31
2023-03-30T01:52:31.863Z,99618.47
2023-03-30T02:00:34.938Z,99592.31
2023-03-30T02:03:12.861Z,99579.59
2023-03-30T02:05:50.471Z,99569.97
2023-03-30T02:08:23.409Z,99560.06
2023-03-30T02:11:01.558Z,99560.59
2023-03-30T02:19:25.694Z,99531.81
2023-03-30T02:21:57.598Z,99514.66
2023-03-30T02:25:00.488Z,99514.16
2023-03-30T02:27:47.269Z,99501.63
2023-03-30T02:30:18.508Z,99494.09
2023-03-30T02:32:50.774Z,99479.81
2023-03-30T02:35:50.392Z,99470.69
2023-03-30T02:38:41.180Z,99468.63
2023-03-30T02:41:31.307Z,99454.03
2023-03-30T02:44:05.059Z,99456.91
2023-03-30T02:46:37.526Z,99450.72
2023-03-30T02:50:01.961Z,99443.44
2023-03-30T02:52:30.196Z,99440.81
2023-03-30T02:55:20.540Z,99423.94
2023-03-30T02:57:53.302Z,99413.78
2023-03-30T03:00:30.426Z,99409.09
2023-03-30T03:03:25.270Z,99404.94
2023-03-30T03:05:54.752Z,99400.00
2023-03-30T03:08:30.509Z,99402.63
2023-03-30T03:13:42.536Z,99385.19
2023-03-30T03:16:17.876Z,99375.03
2023-03-30T03:19:01.590Z,99370.34
2023-03-30T03:21:43.957Z,99370.06
2023-03-30T03:27:04.691Z,99355.78
2023-03-30T03:29:36.462Z,99353.41
2023-03-30T03:32:08.304Z,99345.63
2023-03-30T03:34:40.340Z,99348.50
2023-03-30T03:39:52.796Z,99326.63
2023-03-30T03:42:30.247Z,99332.63
2023-03-30T03:47:42.837Z,99308.97
2023-03-30T03:55:44.009Z,99279.56
2023-03-30T03:58:10.227Z,99269.41
2023-03-30T04:00:36.464Z,99267.31
2023-03-30T04:03:02.729Z,99244.69
2023-03-30T04:05:29.161Z,99232.72
2023-03-30T04:07:55.361Z,99208.28
2023-03-30T04:10:21.580Z,99198.91
2023-03-30T04:12:47.785Z,99196.88
2023-03-30T04:15:15.665Z,99188.25
2023-03-30T04:17:41.939Z,99169.03
2023-03-30T04:20:08.470Z,99151.06
2023-03-30T04:22:34.698Z,99122.50
2023-03-30T04:25:00.916Z,99083.25
2023-03-30T04:27:27.117Z,99073.88
2023-03-30T04:29:53.341Z,99055.41
2023-03-30T04:32:19.584Z,99032.53
2023-03-30T04:34:46.527Z,99016.41
2023-03-30T04:37:12.740Z,98996.41
2023-03-30T04:39:39.013Z,98976.63
2023-03-30T04:42:05.270Z,98958.41
2023-03-30T04:44:31.639Z,98955.53
2023-03-30T04:46:57.861Z,98946.69
2023-03-30T04:49:24.070Z,98937.31
2023-03-30T04:51:50.351Z,98926.66
2023-03-30T04:54:16.582Z,98922.78
2023-03-30T04:56:42.887Z,98902.47
2023-03-30T04:59:09.128Z,98892.34
2023-03-30T05:01:35.427Z,98862.22
2023-03-30T05:04:01.687Z,98846.59
2023-03-30T05:06:27.926Z,98831.75
2023-03-30T05:08:54.134Z,98833.59
2023-03-30T05:11:20.377Z,98813.00
2023-03-30T05:13:46.607Z,98808.84
2023-03-30T05:16:12.806Z,98802.34
2023-03-30T05:18:39.013Z,98805.91
2023-03-30T05:21:05.447Z,98798.13
2023-03-30T05:23:31.848Z,98789.53
2023-03-30T05:25:58.116Z,98773.16
2023-03-30T05:28:24.358Z,98768.19
2023-03-30T05:30:54.017Z,98764.00
2023-03-30T05:33:20.406Z,98765.59
2023-03-30T05:35:46.676Z,98758.03
2023-03-30T05:38:12.932Z,98764.53
2023-03-30T05:40:39.143Z,98754.38
2023-03-30T05:43:05.539Z,98760.31
2023-03-30T05:45:31.736Z,98769.41
2023-03-30T05:47:57.955Z,98756.34
2023-03-30T05:50:24.169Z,98771.41
2023-03-30T05:52:50.377Z,98767.47
2023-03-30T05:55:16.584Z,98775.22
2023-03-30T05:57:42.799Z,98786.81
2023-03-30T06:00:09.197Z,98797.94
2023-03-30T06:02:35.505Z,98807.47
2023-03-30T06:05:01.992Z,98824.38
2023-03-30T06:07:28.260Z,98849.44
2023-03-30T06:09:54.468Z,98860.44
2023-03-30T06:12:20.679Z,98868.81
2023-03-30T06:14:46.876Z,98862.56
2023-03-30T06:17:13.091Z,98861.06
2023-03-30T06:19:39.303Z,98861.88
2023-03-30T06:22:05.598Z,98860.31
2023-03-30T06:24:31.804Z,98867.34
2023-03-30T06:26:58.807Z,98861.63
2023-03-30T06:29:25.024Z,98855.03
2023-03-30T06:31:51.319Z,98855.53
2023-03-30T06:34:17.586Z,98859.91
2023-03-30T06:36:46.006Z,98869.28
2023-03-30T06:39:13.064Z,98876.59
2023-03-30T06:41:39.291Z,98869.97
2023-03-30T06:44:05.700Z,98872.81
2023-03-30T06:46:32.039Z,98876.19
2023-03-30T06:48:58.240Z,98898.34
2023-03-30T06:51:24.459Z,98901.41
2023-03-30T06:53:50.689Z,98899.34
2023-03-30T06:56:16.900Z,98902.00
2023-03-30T06:58:43.120Z,98904.84
2023-03-30T07:01:10.268Z,98893.91
2023-03-30T07:03:36.507Z,98895.97
2023-03-30T07:06:02.712Z,98896.50
2023-03-30T07:08:28.932Z,98915.78
2023-03-30T07:10:55.156Z,98906.31
2023-03-30T07:13:21.364Z,98912.78
2023-03-30T07:15:47.590Z,98917.00
2023-03-30T07:18:14.098Z,98920.94
2023-03-30T07:20:40.428Z,98918.56
2023-03-30T07:23:06.656Z,98921.94
2023-03-30T07:25:32.917Z,98913.03
2023-03-30T07:27:59.135Z,98911.69
2023-03-30T07:30:25.380Z,98909.38
2023-03-30T07:32:51.789Z,98918.09
2023-03-30T07:35:18.102Z,98922.50
2023-03-30T07:37:44.334Z,98924.00
2023-03-30T07:40:10.602Z,98936.44
2023-03-30T07:42:36.840Z,98938.53
2023-03-30T07:45:03.762Z,98946.84
2023-03-30T07:47:29.998Z,98937.28
2023-03-30T07:49:56.227Z,98943.44
2023-03-30T07:52:22.436Z,98956.03
2023-03-30T07:54:48.652Z,98973.03
2023-03-30T07:57:14.976Z,98988.13
2023-03-30T07:59:41.236Z,98996.88
2023-03-30T08:02:14.430Z,99008.28
2023-03-30T08:04:40.829Z,99001.28
2023-03-30T08:07:07.471Z,99017.19
2023-03-30T08:09:33.669Z,99022.31
2023-03-30T08:11:59.960Z,99029.44
2023-03-30T08:14:26.261Z,99044.47
2023-03-30T08:16:52.888Z,99046.31
2023-03-30T08:19:19.421Z,99048.28
2023-03-30T08:21:45.632Z,99041.72
2023-03-30T08:24:11.883Z,99041.81
2023-03-30T08:26:38.101Z,99056.28
2023-03-30T08:29:04.319Z,99047.13
2023-03-30T08:31:30.573Z,99062.69
2023-03-30T08:33:56.827Z,99063.28
2023-03-30T08:36:23.042Z,99082.22
2023-03-30T08:38:49.259Z,99093.59
2023-03-30T08:41:35.698Z,99121.22
2023-03-30T08:44:02.314Z,99123.19
2023-03-30T08:46:28.596Z,99132.44
2023-03-30T08:48:54.905Z,99139.72
2023-03-30T08:51:21.057Z,99135.00
2023-03-30T08:53:47.288Z,99125.59
2023-03-30T08:56:17.313Z,99115.03
2023-03-30T08:59:02.319Z,99105.34
2023-03-30T09:01:30.796Z,99098.81
2023-03-30T09:04:13.853Z,99079.69
2023-03-30T09:06:43.414Z,99068.94
2023-03-30T09:09:11.105Z,99081.72
2023-03-30T09:11:37.314Z,99086.47
2023-03-30T09:14:04.400Z,99075.72
2023-03-30T09:16:57.075Z,99069.38
2023-03-30T09:19:33.395Z,99049.66
2023-03-30T09:21:59.598Z,99005.19
2023-03-30T09:24:26.063Z,99004.31
2023-03-30T09:26:54.752Z,99032.13
2023-03-30T09:29:30.861Z,99059.59
2023-03-30T09:32:13.036Z,99059.28
2023-03-30T09:35:08.596Z,99059.59
2023-03-30T09:37:34.794Z,99062.06
2023-03-30T09:40:02.368Z,99043.03
2023-03-30T09:42:38.908Z,99019.44
2023-03-30T09:45:40.976Z,98925.25
2023-03-30T09:48:07.998Z,98883.41
2023-03-30T09:50:38.278Z,98942.41
2023-03-30T09:53:05.336Z,99022.34
2023-03-30T09:55:32.832Z,99047.47
2023-03-30T09:58:16.443Z,99066.16
2023-03-30T10:00:42.667Z,99098.50
2023-03-30T10:03:18.442Z,99114.31
2023-03-30T10:05:44.692Z,99094.41
2023-03-30T10:08:18.284Z,98969.16
2023-03-30T10:10:44.495Z,98892.94
2023-03-30T10:13:10.644Z,98896.97
2023-03-30T10:15:37.896Z,98878.91
2023-03-30T10:18:06.546Z,98914.50
2023-03-30T10:20:33.998Z,98876.09
2023-03-30T10:23:01.558Z,98959.22
2023-03-30T10:25:27.972Z,99017.91
2023-03-30T10:27:55.261Z,99030.13
2023-03-30T10:30:21.912Z,99043.13
2023-03-30T10:32:48.238Z,99080.97
2023-03-30T10:35:17.541Z,99034.50
2023-03-30T10:37:44.472Z,98948.28
2023-03-30T10:40:16.880Z,98999.19
2023-03-30T10:42:43.088Z,99066.28
2023-03-30T10:45:15.575Z,99153.16
2023-03-30T10:47:51.054Z,99124.88
2023-03-30T10:50:23.883Z,99114.78
2023-03-30T10:52:59.162Z,99041.47
2023-03-30T10:55:30.743Z,99027.25
2023-03-30T10:57:56.922Z,98887.47
2023-03-30T11:00:25.452Z,98920.81
2023-03-30T11:03:03.918Z,98956.00
2023-03-30T11:05:39.982Z,98855.09
2023-03-30T11:08:06.699Z,98935.25
2023-03-30T11:10:35.554Z,98836.00
2023-03-30T11:13:04.811Z,98864.91
2023-03-30T11:15:50.869Z,98926.78
2023-03-30T11:18:18.011Z,98905.31
2023-03-30T11:20:49.210Z,98956.38
2023-03-30T11:23:17.623Z,99004.78
2023-03-30T11:26:03.154Z,98948.94
2023-03-30T11:28:38.741Z,99010.44
2023-03-30T11:31:08.934Z,99244.75
2023-03-30T11:33:39.585Z,99400.19
2023-03-30T11:36:16.217Z,99469.75
2023-03-30T11:38:44.060Z,99476.84
2023-03-30T11:41:12.163Z,99483.19
2023-03-30T11:43:38.382Z,99479.88
2023-03-30T11:46:04.734Z,99456.91
2023-03-30T11:48:44.240Z,99437.50
2023-03-30T11:51:16.471Z,99454.56
2023-03-30T11:53:48.541Z,99461.38
2023-03-30T11:56:26.059Z,99443.38
2023-03-30T11:59:00.927Z,99414.50
2023-03-30T12:01:35.833Z,99394.13
2023-03-30T12:04:09.478Z,99363.91
2023-03-30T12:06:39.519Z,99354.47
2023-03-30T12:09:14.665Z,99332.81
2023-03-30T12:11:59.635Z,99316.22
2023-03-30T12:14:47.186Z,99303.97
2023-03-30T12:17:20.672Z,99293.81
2023-03-30T12:19:56.518Z,99287.63
2023-03-30T12:22:34.616Z,99265.59
2023-03-30T12:25:06.345Z,99221.66
2023-03-30T12:27:35.932Z,99145.09
2023-03-30T12:30:11.405Z,99075.59
2023-03-30T12:32:37.631Z,98956.81
2023-03-30T12:35:23.890Z,98920.00
2023-03-30T12:37:50.139Z,98896.97
2023-03-30T12:40:19.452Z,98927.06
2023-03-30T12:43:05.910Z,98887.34
2023-03-30T12:45:33.394Z,98896.81
2023-03-30T12:48:12.726Z,98925.13
2023-03-30T12:51:00.469Z,98895.41
2023-03-30T12:53:26.615Z,98861.81
2023-03-30T12:56:05.035Z,98894.25
2023-03-30T12:58:48.573Z,98949.09
2023-03-30T13:01:20.402Z,99004.78
2023-03-30T13:03:47.191Z,99157.31
2023-03-30T13:06:18.657Z,99268.75
2023-03-30T13:08:44.877Z,99326.19
2023-03-30T13:11:18.013Z,99335.31
2023-03-30T13:13:48.547Z,99313.16
2023-03-30T13:16:14.871Z,99291.41
2023-03-30T13:18:54.036Z,99209.59
2023-03-30T13:21:24.306Z,99182.25
2023-03-30T13:24:04.343Z,99116.41
2023-03-30T13:26:38.932Z,99123.47
2023-03-30T13:29:09.021Z,99040.00
2023-03-30T13:31:50.510Z,98982.53
2023-03-30T13:34:46.641Z,99039.25
2023-03-30T13:37:20.903Z,99054.22
2023-03-30T13:39:59.013Z,99069.78
2023-03-30T13:42:25.191Z,99066.38
2023-03-30T13:44:57.820Z,99014.75
2023-03-30T13:47:24.012Z,98995.47
2023-03-30T13:49:53.035Z,99038.00
2023-03-30T13:52:20.786Z,99091.56
2023-03-30T13:54:47.124Z,99155.59
2023-03-30T13:57:14.645Z,99213.03
2023-03-30T13:59:50.032Z,99284.66
2023-03-30T14:02:16.405Z,99339.84
2023-03-30T14:04:42.632Z,99403.03
2023-03-30T14:07:15.736Z,99411.19
2023-03-30T14:09:42.016Z,99398.91
2023-03-30T14:12:08.218Z,99366.94
2023-03-30T14:14:38.154Z,99339.22
2023-03-30T14:17:11.954Z,99288.78
2023-03-30T14:19:38.250Z,99264.91
2023-03-30T14:22:24.360Z,99270.78
2023-03-30T14:24:57.204Z,99261.09
2023-03-30T14:27:23.419Z,99243.13
2023-03-30T14:29:50.152Z,99228.56
2023-03-30T14:32:16.764Z,99213.19
2023-03-30T14:34:47.856Z,99196.72
2023-03-30T14:37:14.074Z,99175.56
2023-03-30T14:39:47.125Z,99179.66
2023-03-30T14:42:16.348Z,99162.34
2023-03-30T14:44:42.576Z,99161.41
2023-03-30T14:47:08.803Z,99154.69
2023-03-30T14:49:35.007Z,99155.00
2023-03-30T14:52:01.781Z,99156.88
2023-03-30T14:54:27.998Z,99159.38
2023-03-30T14:57:00.699Z,99151.94
2023-03-30T14:59:30.254Z,99137.72
2023-03-30T15:01:56.519Z,99122.31
2023-03-30T15:04:24.050Z,99088.56
2023-03-30T15:06:50.388Z,99096.19
2023-03-30T15:09:23.241Z,99122.63
2023-03-30T15:11:51.352Z,99105.47
2023-03-30T15:14:18.339Z,99108.25
2023-03-30T15:16:44.748Z,99103.75
2023-03-30T15:19:18.506Z,99084.44
2023-03-30T15:21:46.172Z,99041.50
2023-03-30T15:24:14.633Z,99034.28
2023-03-30T15:26:42.070Z,99045.47
2023-03-30T15:29:08.974Z,99048.03
2023-03-30T15:31:35.234Z,99024.00
2023-03-30T15:34:01.494Z,98950.09
2023-03-30T15:36:33.654Z,98982.03
2023-03-30T15:38:59.995Z,98996.00
2023-03-30T15:41:44.538Z,98964.69
2023-03-30T15:44:17.471Z,99033.13
2023-03-30T15:46:43.858Z,99024.00
2023-03-30T15:49:11.495Z,99054.66
2023-03-30T15:51:47.736Z,99056.84
2023-03-30T15:54:14.656Z,99071.19
2023-03-30T15:57:01.119Z,99107.00
2023-03-30T15:59:30.104Z,99130.25
2023-03-30T16:01:56.525Z,99139.56
2023-03-30T16:04:23.370Z,99118.47
2023-03-30T16:06:49.688Z,99099.00
2023-03-30T16:09:16.232Z,99049.72
2023-03-30T16:11:42.454Z,98979.50
2023-03-30T16:14:10.885Z,98936.34
2023-03-30T16:16:37.205Z,98775.38
2023-03-30T16:19:03.500Z,98685.91
2023-03-30T16:21:29.713Z,98714.06
2023-03-30T16:23:55.913Z,98911.50
2023-03-30T16:26:22.108Z,99069.59
2023-03-30T16:28:49.662Z,99175.31
2023-03-30T16:31:25.026Z,99207.97
2023-03-30T16:33:51.812Z,99210.88
2023-03-30T16:36:18.731Z,99210.59
2023-03-30T16:38:44.955Z,99237.59
2023-03-30T16:41:15.960Z,99252.69
2023-03-30T16:43:42.169Z,99263.50
2023-03-30T16:46:09.691Z,99273.88
2023-03-30T16:48:35.939Z,99295.06
2023-03-30T16:51:02.223Z,99323.81
2023-03-30T16:53:28.509Z,99338.50
2023-03-30T16:55:54.713Z,99366.75
2023-03-30T16:58:20.932Z,99385.25
2023-03-30T17:00:47.847Z,99416.81
2023-03-30T17:03:14.130Z,99421.59
2023-03-30T17:05:40.376Z,99430.91
2023-03-30T17:08:07.434Z,99443.25
2023-03-30T17:10:34.788Z,99450.38
2023-03-30T17:13:01.012Z,99448.31
2023-03-30T17:15:27.707Z,99448.56
2023-03-30T17:17:53.958Z,99447.06
2023-03-30T17:20:21.803Z,99428.50
2023-03-30T17:22:48.204Z,99403.84
2023-03-30T17:25:14.482Z,99386.09
2023-03-30T17:27:40.678Z,99362.91
2023-03-30T17:30:18.620Z,99340.81
2023-03-30T17:32:44.844Z,99319.72
2023-03-30T17:35:11.087Z,99317.31
2023-03-30T17:37:37.551Z,99334.97
2023-03-30T17:40:13.041Z,99367.97
2023-03-30T17:42:39.249Z,99368.75
2023-03-30T17:45:05.634Z,99383.78
2023-03-30T17:47:31.857Z,99402.81
2023-03-30T17:49:58.102Z,99419.53
2023-03-30T17:52:24.321Z,99421.97
2023-03-30T17:54:50.551Z,99429.28
2023-03-30T17:57:16.780Z,99433.19
2023-03-30T17:59:43.007Z,99433.00
2023-03-30T18:02:09.304Z,99435.63
2023-03-30T18:04:35.602Z,99440.84
2023-03-30T18:07:01.813Z,99429.41
2023-03-30T18:09:28.023Z,99426.56
2023-03-30T18:11:54.258Z,99423.72
2023-03-30T18:14:20.470Z,99419.56
2023-03-30T18:16:49.994Z,99414.59
2023-03-30T18:19:16.525Z,99413.31
2023-03-30T18:21:42.746Z,99405.81
2023-03-30T18:24:08.945Z,99400.38
2023-03-30T18:26:35.163Z,99397.78
2023-03-30T18:29:01.360Z,99389.44
2023-03-30T18:31:27.628Z,99388.94
2023-03-30T18:33:53.912Z,99373.06
2023-03-30T18:36:20.182Z,99369.94
2023-03-30T18:38:46.392Z,99363.44
2023-03-30T18:41:12.688Z,99357.44
2023-03-30T18:43:38.946Z,99343.91
2023-03-30T18:46:05.435Z,99344.16
2023-03-30T18:48:31.789Z,99336.63
2023-03-30T18:50:58.048Z,99322.59
2023-03-30T18:53:25.087Z,99316.28
2023-03-30T18:55:52.129Z,99309.03
2023-03-30T18:58:22.091Z,99295.72
2023-03-30T19:00:48.837Z,99282.94
2023-03-30T19:03:15.373Z,99269.09
2023-03-30T19:05:41.649Z,99255.50
2023-03-30T19:08:14.647Z,99259.88
2023-03-30T19:10:41.117Z,99249.19
2023-03-30T19:13:07.346Z,99240.56
2023-03-30T19:15:34.334Z,99233.81
2023-03-30T19:18:00.941Z,99232.47
2023-03-30T19:20:27.462Z,99231.16
2023-03-30T19:22:53.725Z,99221.00
2023-03-30T19:25:20.479Z,99215.50
2023-03-30T19:28:01.361Z,99207.66
2023-03-30T19:30:29.401Z,99201.72
2023-03-30T19:32:56.360Z,99201.72
2023-03-30T19:35:22.651Z,99204.03
2023-03-30T19:37:48.884Z,99207.66
2023-03-30T19:40:15.501Z,99196.91
2023-03-30T19:42:42.269Z,99201.84
2023-03-30T19:45:08.559Z,99206.78
2023-03-30T19:47:34.817Z,99198.00
2023-03-30T19:50:01.490Z,99199.81
2023-03-30T19:52:27.720Z,99205.03
2023-03-30T19:54:53.924Z,99205.47
2023-03-30T19:57:20.265Z,99208.06
2023-03-30T19:59:46.896Z,99204.91
2023-03-30T20:02:13.277Z,99208.56
2023-03-30T20:04:39.506Z,99208.28
2023-03-30T20:07:05.720Z,99213.78
2023-03-30T20:09:31.964Z,99202.03
2023-03-30T20:11:58.191Z,99205.69
2023-03-30T20:14:24.617Z,99206.66
2023-03-30T20:16:51.093Z,99210.06
2023-03-30T20:19:29.059Z,99211.09
2023-03-30T20:21:56.176Z,99204.25
2023-03-30T20:24:22.646Z,99193.63
2023-03-30T20:26:48.858Z,99196.50
2023-03-30T20:29:15.092Z,99195.19
2023-03-30T20:31:41.327Z,99194.16
2023-03-30T20:34:07.536Z,99196.00
2023-03-30T20:36:33.773Z,99201.97
2023-03-30T20:38:59.997Z,99191.59
2023-03-30T20:41:26.208Z,99189.53
2023-03-30T20:43:56.389Z,99177.03
2023-03-30T20:46:23.728Z,99179.38
2023-03-30T20:48:49.961Z,99159.84
2023-03-30T20:51:16.189Z,99164.56
2023-03-30T20:53:42.411Z,99149.53
2023-03-30T20:56:08.730Z,99143.25
2023-03-30T20:58:35.668Z,99132.06
2023-03-30T21:01:03.118Z,99124.25
2023-03-30T21:03:29.525Z,99121.09
2023-03-30T21:06:05.111Z,99110.84
2023-03-30T21:08:31.597Z,99111.16
2023-03-30T21:10:57.792Z,99099.22
2023-03-30T21:13:24.008Z,99100.50
2023-03-30T21:15:59.835Z,99084.59
2023-03-30T21:18:26.054Z,99081.47
2023-03-30T21:20:52.271Z,99065.06
2023-03-30T21:23:18.477Z,99054.84
2023-03-30T21:25:44.726Z,99048.34
2023-03-30T21:28:11.056Z,99037.41
2023-03-30T21:30:37.268Z,99015.28
2023-03-30T21:33:03.622Z,99006.63
2023-03-30T21:35:29.919Z,99000.38
2023-03-30T21:37:56.138Z,98987.06
2023-03-30T21:40:22.397Z,98981.56
2023-03-30T21:42:48.627Z,98969.00
2023-03-30T21:45:14.835Z,98960.72
2023-03-30T21:47:41.081Z,98952.09
2023-03-30T21:50:07.502Z,98950.75
2023-03-30T21:52:33.702Z,98938.22
2023-03-30T21:54:59.901Z,98929.28
2023-03-30T21:57:26.232Z,98916.50
2023-03-30T21:59:52.587Z,98886.84
2023-03-30T22:02:18.801Z,98858.16
2023-03-30T22:04:45.002Z,98823.75
2023-03-30T22:07:11.296Z,98790.16
2023-03-30T22:09:37.498Z,98760.22
2023-03-30T22:12:03.763Z,98719.19
2023-03-30T22:14:29.978Z,98694.47
2023-03-30T22:16:56.182Z,98666.09
2023-03-30T22:19:22.387Z,98652.84
2023-03-30T22:21:48.821Z,98620.03
2023-03-30T22:24:15.018Z,98581.47
2023-03-30T22:26:41.223Z,98541.59
2023-03-30T22:29:07.433Z,98495.75
2023-03-30T22:31:33.652Z,98445.47
2023-03-30T22:33:59.885Z,98400.38
2023-03-30T22:36:26.627Z,98370.75
2023-03-30T22:38:52.863Z,98334.16
2023-03-30T22:41:19.102Z,98304.72
2023-03-30T22:43:45.311Z,98261.19
2023-03-30T22:46:11.869Z,98236.00
2023-03-30T22:48:38.296Z,98199.50
2023-03-30T22:51:04.609Z,98179.28
2023-03-30T22:53:31.140Z,98143.72
2023-03-30T22:55:57.347Z,98123.94
2023-03-30T22:58:23.553Z,98093.13
2023-03-30T23:00:49.772Z,98072.44
2023-03-30T23:03:16.121Z,98063.88
2023-03-30T23:05:42.375Z,98052.69
2023-03-30T23:08:08.672Z,98060.03
2023-03-30T23:10:34.875Z,98050.19
2023-03-30T23:13:01.088Z,98049.72
2023-03-30T23:15:27.284Z,98034.84
2023-03-30T23:17:53.509Z,98024.13
2023-03-30T23:20:19.720Z,98005.59
2023-03-30T23:22:45.927Z,98006.97
2023-03-30T23:25:12.123Z,97994.22
2023-03-30T23:27:38.343Z,97984.56
2023-03-30T23:30:05.142Z,97982.72
2023-03-30T23:32:31.399Z,97992.50
2023-03-30T23:34:57.684Z,97982.69
2023-03-30T23:37:23.895Z,97974.28
2023-03-30T23:39:50.171Z,97960.94
2023-03-30T23:42:16.388Z,97952.06
2023-03-30T23:44:42.634Z,97932.13
2023-03-30T23:47:09.228Z,97916.38
2023-03-30T23:49:35.446Z,97900.75
2023-03-30T23:52:01.647Z,97890.00
2023-03-30T23:54:27.858Z,97887.41
2023-03-30T23:56:54.072Z,97866.88
2023-03-30T23:59:20.328Z,97851.69
